Time;durP1;ratioP1;P1;durP2;ratioP2;P2;SDS_P1;SDS_P2;PMS_P1;PMS_P2;Temp;Humidity;BMP_temperature;BMP_pressure;BME280_temperature;BME280_humidity;BME280_pressure;Samples;Min_cycle;Max_cycle;Signal;HPM_P1;HPM_P2
2024/03/05 00:01:48;;;;;;;4.57;1.20;;;;;;;;;;5086847;28;20086;-59
2024/03/05 00:04:14;;;;;;;3.30;1.30;;;;;;;;;;5086723;28;20028;-60
2024/03/05 00:06:39;;;;;;;4.47;1.58;;;;;;;;;;5088189;28;20066;-57
2024/03/05 00:09:05;;;;;;;4.93;1.40;;;;;;;;;;5086537;28;20028;-58
2024/03/05 00:11:30;;;;;;;4.22;1.27;;;;;;;;;;5083278;28;20116;-60
2024/03/05 00:13:56;;;;;;;4.82;1.33;;;;;;;;;;5080781;28;20036;-53
2024/03/05 00:16:21;;;;;;;3.33;1.10;;;;;;;;;;5083443;28;20090;-53
2024/03/05 00:18:47;;;;;;;4.32;1.20;;;;;;;;;;5086609;28;20032;-49
2024/03/05 00:21:12;;;;;;;3.03;1.17;;;;;;;;;;5077189;28;20047;-51
2024/03/05 00:23:38;;;;;;;3.25;1.35;;;;;;;;;;5082884;28;20379;-49
2024/03/05 00:26:04;;;;;;;2.47;0.90;;;;;;;;;;5076114;28;20110;-53
2024/03/05 00:28:29;;;;;;;2.85;1.02;;;;;;;;;;5078209;28;20499;-54
2024/03/05 00:30:54;;;;;;;3.40;1.00;;;;;;;;;;5074416;28;20036;-55
2024/03/05 00:33:20;;;;;;;2.50;1.10;;;;;;;;;;5086390;28;20549;-53
2024/03/05 00:35:46;;;;;;;2.88;1.35;;;;;;;;;;5080921;28;20033;-50
2024/03/05 00:38:12;;;;;;;4.50;0.95;;;;;;;;;;5089420;28;20036;-51
2024/03/05 00:40:37;;;;;;;4.15;1.08;;;;;;;;;;5082216;28;20085;-50
2024/03/05 00:43:03;;;;;;;2.55;0.90;;;;;;;;;;5089186;28;20131;-51
2024/03/05 00:45:30;;;;;;;2.63;0.88;;;;;;;;;;5081152;28;20439;-50
2024/03/05 00:47:55;;;;;;;3.05;1.17;;;;;;;;;;5088307;28;20479;-52
2024/03/05 00:50:22;;;;;;;5.97;1.00;;;;;;;;;;5079380;28;20064;-53
2024/03/05 00:52:48;;;;;;;2.70;0.90;;;;;;;;;;5086958;28;20123;-49
2024/03/05 00:55:13;;;;;;;2.75;0.77;;;;;;;;;;5079657;28;20124;-50
2024/03/05 00:57:38;;;;;;;2.28;0.75;;;;;;;;;;5076861;28;20479;-50
2024/03/05 01:00:05;;;;;;;4.80;0.90;;;;;;;;;;5075851;28;20051;-54
2024/03/05 01:02:31;;;;;;;2.83;0.90;;;;;;;;;;5077261;28;20032;-54
2024/03/05 01:04:56;;;;;;;2.20;0.80;;;;;;;;;;5073466;28;20098;-54
2024/03/05 01:07:22;;;;;;;2.63;1.00;;;;;;;;;;5080872;28;20040;-51
2024/03/05 01:09:48;;;;;;;2.05;0.90;;;;;;;;;;5089246;28;20056;-48
2024/03/05 01:12:13;;;;;;;2.15;0.93;;;;;;;;;;5081233;28;20051;-52
2024/03/05 01:14:40;;;;;;;2.80;0.95;;;;;;;;;;5084178;28;20040;-50
2024/03/05 01:17:08;;;;;;;1.92;0.77;;;;;;;;;;5084859;28;20039;-49
2024/03/05 01:19:34;;;;;;;1.52;0.63;;;;;;;;;;5084837;28;20428;-52
2024/03/05 01:21:59;;;;;;;2.60;1.02;;;;;;;;;;5085911;28;20071;-50
2024/03/05 01:24:25;;;;;;;2.13;0.95;;;;;;;;;;5083847;28;20055;-55
2024/03/05 01:26:51;;;;;;;3.03;1.10;;;;;;;;;;5079763;28;20072;-49
2024/03/05 01:29:17;;;;;;;1.75;0.80;;;;;;;;;;5081522;28;20032;-51
2024/03/05 01:31:44;;;;;;;1.65;0.80;;;;;;;;;;5085257;28;20587;-52
2024/03/05 01:34:10;;;;;;;2.03;0.85;;;;;;;;;;5085799;28;20516;-53
2024/03/05 01:36:35;;;;;;;1.20;0.50;;;;;;;;;;5085697;28;20040;-57
2024/03/05 01:39:00;;;;;;;1.45;0.70;;;;;;;;;;5088781;28;20142;-58
2024/03/05 01:41:26;;;;;;;2.30;0.80;;;;;;;;;;5079422;28;20036;-59
2024/03/05 01:43:52;;;;;;;1.42;0.65;;;;;;;;;;5077706;28;20051;-58
2024/03/05 01:46:18;;;;;;;2.28;0.90;;;;;;;;;;5088123;28;20042;-59
2024/03/05 01:48:44;;;;;;;1.60;0.73;;;;;;;;;;5078043;28;20040;-52
2024/03/05 01:51:13;;;;;;;1.58;0.80;;;;;;;;;;5087143;28;20119;-49
2024/03/05 01:53:39;;;;;;;1.92;0.90;;;;;;;;;;5065617;28;20130;-51
2024/03/05 01:56:04;;;;;;;2.05;0.80;;;;;;;;;;5078114;28;20060;-52
2024/03/05 01:58:30;;;;;;;1.95;0.80;;;;;;;;;;5084532;28;20046;-51
2024/03/05 02:00:57;;;;;;;1.55;0.70;;;;;;;;;;5077384;28;20079;-52
2024/03/05 02:03:22;;;;;;;1.35;0.60;;;;;;;;;;5076456;28;20066;-54
2024/03/05 02:05:50;;;;;;;1.67;0.73;;;;;;;;;;5079580;28;20472;-52
2024/03/05 02:08:16;;;;;;;1.48;0.80;;;;;;;;;;5084774;28;20032;-53
2024/03/05 02:10:42;;;;;;;1.30;0.60;;;;;;;;;;5080464;28;20033;-47
2024/03/05 02:13:09;;;;;;;2.00;0.80;;;;;;;;;;5082610;28;20056;-54
2024/03/05 02:15:34;;;;;;;1.73;0.80;;;;;;;;;;5079988;28;20108;-50
2024/03/05 02:18:00;;;;;;;1.80;0.88;;;;;;;;;;5074682;28;20120;-51
2024/03/05 02:20:27;;;;;;;1.15;0.60;;;;;;;;;;5084912;28;20032;-51
2024/03/05 02:22:52;;;;;;;1.67;0.57;;;;;;;;;;5082992;28;20074;-50
2024/03/05 02:25:20;;;;;;;2.17;0.60;;;;;;;;;;5082549;28;20028;-50
2024/03/05 02:27:45;;;;;;;1.73;0.60;;;;;;;;;;5084475;28;20036;-49
2024/03/05 02:30:12;;;;;;;0.77;0.50;;;;;;;;;;5074369;28;20028;-54
2024/03/05 02:32:41;;;;;;;1.52;0.63;;;;;;;;;;5074617;28;20090;-51
2024/03/05 02:35:08;;;;;;;1.40;0.60;;;;;;;;;;5080448;28;20043;-52
2024/03/05 02:37:40;;;;;;;0.70;0.40;;;;;;;;;;5078757;28;20103;-50
2024/03/05 02:40:14;;;;;;;1.45;0.50;;;;;;;;;;5070773;28;20036;-52
2024/03/05 02:42:41;;;;;;;0.73;0.47;;;;;;;;;;5077966;28;20123;-53
2024/03/05 02:45:07;;;;;;;1.30;0.50;;;;;;;;;;5060271;28;20028;-54
2024/03/05 02:47:36;;;;;;;1.27;0.60;;;;;;;;;;5076045;28;20045;-51
2024/03/05 02:50:03;;;;;;;1.77;0.60;;;;;;;;;;5077513;28;20485;-51
2024/03/05 02:52:30;;;;;;;0.85;0.50;;;;;;;;;;5078749;28;20054;-53
2024/03/05 02:54:55;;;;;;;0.85;0.50;;;;;;;;;;5067545;28;20037;-51
2024/03/05 02:57:20;;;;;;;2.65;0.65;;;;;;;;;;5079331;28;20043;-50
2024/03/05 02:59:45;;;;;;;0.70;0.50;;;;;;;;;;5081259;28;20048;-51
2024/03/05 03:02:11;;;;;;;1.10;0.57;;;;;;;;;;5082697;28;20046;-50
2024/03/05 03:04:37;;;;;;;1.08;0.60;;;;;;;;;;5080259;28;20035;-52
2024/03/05 03:07:02;;;;;;;1.08;0.50;;;;;;;;;;5074389;28;20040;-59
2024/03/05 03:09:28;;;;;;;1.48;0.63;;;;;;;;;;5072506;28;20040;-58
2024/03/05 03:11:55;;;;;;;1.83;0.55;;;;;;;;;;5085603;28;20036;-59
2024/03/05 03:14:21;;;;;;;0.98;0.60;;;;;;;;;;5080936;28;20036;-59
2024/03/05 03:16:46;;;;;;;1.15;0.50;;;;;;;;;;5083293;28;20364;-58
2024/03/05 03:19:12;;;;;;;0.68;0.50;;;;;;;;;;5083100;28;20157;-60
2024/03/05 03:21:37;;;;;;;0.57;0.40;;;;;;;;;;5089354;28;20096;-56
2024/03/05 03:24:03;;;;;;;0.75;0.52;;;;;;;;;;5083346;28;20475;-57
2024/03/05 03:26:29;;;;;;;0.55;0.50;;;;;;;;;;5078249;28;20032;-58
2024/03/05 03:28:54;;;;;;;0.60;0.40;;;;;;;;;;5077799;28;20171;-58
2024/03/05 03:31:21;;;;;;;1.10;0.60;;;;;;;;;;5074780;28;20436;-59
2024/03/05 03:33:47;;;;;;;1.00;0.50;;;;;;;;;;5080010;28;20024;-56
2024/03/05 03:36:23;;;;;;;0.68;0.38;;;;;;;;;;5086163;28;20054;-57
2024/03/05 03:38:48;;;;;;;0.73;0.47;;;;;;;;;;5081196;28;20488;-53
2024/03/05 03:41:14;;;;;;;1.05;0.50;;;;;;;;;;5076631;28;20059;-52
2024/03/05 03:43:40;;;;;;;0.90;0.50;;;;;;;;;;5078306;28;20046;-51
2024/03/05 03:46:05;;;;;;;1.30;0.60;;;;;;;;;;5084916;28;20111;-52
2024/03/05 03:48:30;;;;;;;0.60;0.45;;;;;;;;;;5077431;28;20440;-59
2024/03/05 03:50:56;;;;;;;1.27;0.50;;;;;;;;;;5076511;28;20068;-58
2024/03/05 03:53:22;;;;;;;1.25;0.60;;;;;;;;;;5082131;28;20466;-58
2024/03/05 03:55:47;;;;;;;0.68;0.40;;;;;;;;;;5083991;28;20104;-58
2024/03/05 03:58:13;;;;;;;1.02;0.50;;;;;;;;;;5083688;28;20044;-59
2024/03/05 04:00:38;;;;;;;0.93;0.50;;;;;;;;;;5083499;28;20107;-51
2024/03/05 04:03:04;;;;;;;0.60;0.40;;;;;;;;;;5079669;28;20044;-53
2024/03/05 04:05:29;;;;;;;1.23;0.60;;;;;;;;;;5078915;28;20068;-55
2024/03/05 04:07:54;;;;;;;0.63;0.40;;;;;;;;;;5077448;28;20036;-53
2024/03/05 04:10:20;;;;;;;1.02;0.50;;;;;;;;;;5074370;28;20484;-54
2024/03/05 04:12:45;;;;;;;0.35;0.35;;;;;;;;;;5077109;28;20090;-51
2024/03/05 04:15:12;;;;;;;1.23;0.50;;;;;;;;;;5076977;28;20028;-53
2024/03/05 04:17:37;;;;;;;0.70;0.40;;;;;;;;;;5085643;28;20395;-55
2024/03/05 04:20:04;;;;;;;0.98;0.47;;;;;;;;;;5080904;28;20032;-50
2024/03/05 04:22:29;;;;;;;0.80;0.50;;;;;;;;;;5083742;28;20036;-54
2024/03/05 04:24:57;;;;;;;1.83;0.40;;;;;;;;;;5076547;28;20043;-52
2024/03/05 04:27:27;;;;;;;0.52;0.40;;;;;;;;;;5079268;28;20086;-53
2024/03/05 04:29:56;;;;;;;1.10;0.55;;;;;;;;;;5075445;28;20040;-51
2024/03/05 04:32:21;;;;;;;1.10;0.60;;;;;;;;;;5090180;28;20481;-54
2024/03/05 04:34:59;;;;;;;1.23;0.77;;;;;;;;;;5085691;28;20158;-51
2024/03/05 04:37:25;;;;;;;1.33;0.55;;;;;;;;;;5091353;28;20032;-54
2024/03/05 04:39:50;;;;;;;0.90;0.45;;;;;;;;;;5087417;28;20059;-53
2024/03/05 04:42:16;;;;;;;1.02;0.50;;;;;;;;;;5076311;28;20036;-54
2024/03/05 04:44:43;;;;;;;1.23;0.50;;;;;;;;;;5079739;28;20040;-53
2024/03/05 04:47:09;;;;;;;0.52;0.30;;;;;;;;;;5074758;28;20115;-50
2024/03/05 04:49:36;;;;;;;0.80;0.55;;;;;;;;;;5077085;28;20119;-51
2024/03/05 04:52:02;;;;;;;0.52;0.40;;;;;;;;;;5089023;28;20032;-56
2024/03/05 04:54:29;;;;;;;0.55;0.40;;;;;;;;;;5086474;28;20044;-55
2024/03/05 04:56:54;;;;;;;0.95;0.52;;;;;;;;;;5074174;28;20032;-52
2024/03/05 04:59:20;;;;;;;0.60;0.45;;;;;;;;;;5078583;28;20147;-53
2024/03/05 05:01:45;;;;;;;0.80;0.50;;;;;;;;;;5080192;28;20040;-54
2024/03/05 05:04:10;;;;;;;0.38;0.30;;;;;;;;;;5081046;28;20028;-53
2024/03/05 05:06:36;;;;;;;0.90;0.40;;;;;;;;;;5073234;28;20036;-53
2024/03/05 05:09:01;;;;;;;1.15;0.40;;;;;;;;;;5081493;28;20032;-55
2024/03/05 05:11:26;;;;;;;1.52;0.52;;;;;;;;;;5073739;28;20123;-55
2024/03/05 05:13:52;;;;;;;0.50;0.40;;;;;;;;;;5080794;28;20036;-54
2024/03/05 05:16:18;;;;;;;0.40;0.30;;;;;;;;;;5075830;28;20626;-52
2024/03/05 05:18:44;;;;;;;0.90;0.50;;;;;;;;;;5077220;28;20538;-53
2024/03/05 05:21:09;;;;;;;0.57;0.38;;;;;;;;;;5085300;28;20449;-52
2024/03/05 05:23:34;;;;;;;1.10;0.38;;;;;;;;;;5084541;28;20033;-50
2024/03/05 05:26:00;;;;;;;0.95;0.50;;;;;;;;;;5073868;28;20058;-53
2024/03/05 05:28:25;;;;;;;0.40;0.32;;;;;;;;;;5081716;28;20028;-52
2024/03/05 05:30:51;;;;;;;0.93;0.50;;;;;;;;;;5076655;28;20048;-54
2024/03/05 05:33:17;;;;;;;0.60;0.38;;;;;;;;;;5081731;28;20028;-54
2024/03/05 05:35:42;;;;;;;0.70;0.40;;;;;;;;;;5083452;28;20121;-56
2024/03/05 05:38:09;;;;;;;0.47;0.35;;;;;;;;;;5089295;28;20482;-55
2024/03/05 05:40:35;;;;;;;0.38;0.30;;;;;;;;;;5081227;28;20044;-51
2024/03/05 05:43:00;;;;;;;0.52;0.40;;;;;;;;;;5087188;28;20028;-55
2024/03/05 05:45:25;;;;;;;1.30;0.40;;;;;;;;;;5079538;28;20132;-54
2024/03/05 05:47:51;;;;;;;0.40;0.40;;;;;;;;;;5086274;28;20036;-51
2024/03/05 05:50:17;;;;;;;0.30;0.30;;;;;;;;;;5088873;28;20053;-56
2024/03/05 05:52:44;;;;;;;0.90;0.40;;;;;;;;;;5090432;28;20071;-53
2024/03/05 05:55:10;;;;;;;0.98;0.50;;;;;;;;;;5083605;28;20032;-54
2024/03/05 05:57:36;;;;;;;0.65;0.35;;;;;;;;;;5081642;28;20028;-51
2024/03/05 06:00:03;;;;;;;0.30;0.30;;;;;;;;;;5079135;28;20048;-54
2024/03/05 06:02:32;;;;;;;0.70;0.50;;;;;;;;;;5075225;28;20040;-55
2024/03/05 06:04:59;;;;;;;0.55;0.50;;;;;;;;;;5083040;28;20113;-54
2024/03/05 06:07:24;;;;;;;0.70;0.40;;;;;;;;;;5073451;28;20036;-56
2024/03/05 06:09:49;;;;;;;0.40;0.30;;;;;;;;;;5077402;28;20032;-54
2024/03/05 06:12:15;;;;;;;0.40;0.40;;;;;;;;;;5084214;28;20502;-53
2024/03/05 06:14:41;;;;;;;0.70;0.40;;;;;;;;;;5079092;28;20118;-54
2024/03/05 06:17:06;;;;;;;0.45;0.45;;;;;;;;;;5085111;28;20024;-54
2024/03/05 06:19:32;;;;;;;0.95;0.30;;;;;;;;;;5083253;28;20111;-54
2024/03/05 06:21:57;;;;;;;0.47;0.30;;;;;;;;;;5083975;28;20043;-54
2024/03/05 06:24:23;;;;;;;0.73;0.40;;;;;;;;;;5090474;28;20356;-54
2024/03/05 06:26:49;;;;;;;3.08;0.50;;;;;;;;;;5085304;28;20471;-50
2024/03/05 06:29:14;;;;;;;1.15;0.55;;;;;;;;;;5077623;28;20445;-52
2024/03/05 06:31:39;;;;;;;1.27;0.40;;;;;;;;;;5072316;28;20044;-53
2024/03/05 06:34:10;;;;;;;0.70;0.30;;;;;;;;;;5075273;28;20033;-54
2024/03/05 06:36:36;;;;;;;7.75;0.50;;;;;;;;;;5077317;28;20040;-52
2024/03/05 06:39:13;;;;;;;0.98;0.38;;;;;;;;;;5065805;28;20040;-60
2024/03/05 06:41:39;;;;;;;0.38;0.30;;;;;;;;;;5066833;28;20036;-59
2024/03/05 06:44:10;;;;;;;0.45;0.32;;;;;;;;;;5069264;28;20044;-60
2024/03/05 06:46:41;;;;;;;1.45;0.68;;;;;;;;;;5072314;28;20596;-60
2024/03/05 06:49:08;;;;;;;0.50;0.40;;;;;;;;;;5066457;28;20033;-60
2024/03/05 06:51:41;;;;;;;0.30;0.30;;;;;;;;;;5065968;28;20041;-50
2024/03/05 06:56:51;;;;;;;0.20;0.20;;;;;;;;;;5079332;28;20083;-49
2024/03/05 06:59:18;;;;;;;0.52;0.30;;;;;;;;;;5075904;28;20099;-50
2024/03/05 07:01:44;;;;;;;0.80;0.32;;;;;;;;;;5069299;28;20048;-52
2024/03/05 07:04:09;;;;;;;0.30;0.30;;;;;;;;;;5068325;28;20036;-59
2024/03/05 07:06:35;;;;;;;0.55;0.30;;;;;;;;;;5069593;28;20082;-58
2024/03/05 07:09:00;;;;;;;0.68;0.40;;;;;;;;;;5085254;28;20121;-58
2024/03/05 07:11:27;;;;;;;1.02;0.32;;;;;;;;;;5086620;28;20032;-58
2024/03/05 07:13:53;;;;;;;0.80;0.47;;;;;;;;;;5070549;28;20052;-57
2024/03/05 07:16:19;;;;;;;1.75;0.40;;;;;;;;;;5068414;28;20113;-59
2024/03/05 07:18:49;;;;;;;0.80;0.50;;;;;;;;;;5072222;28;20090;-50
2024/03/05 07:21:17;;;;;;;0.32;0.30;;;;;;;;;;5076904;28;20103;-51
2024/03/05 07:23:44;;;;;;;0.68;0.40;;;;;;;;;;5078158;28;20688;-54
2024/03/05 07:26:09;;;;;;;1.75;0.30;;;;;;;;;;5075626;28;20059;-52
2024/03/05 07:28:37;;;;;;;1.60;0.32;;;;;;;;;;5069826;28;20496;-53
2024/03/05 07:31:02;;;;;;;3.95;0.47;;;;;;;;;;5067985;28;20493;-50
2024/03/05 07:33:28;;;;;;;1.17;0.40;;;;;;;;;;5069386;28;20041;-54
2024/03/05 07:35:53;;;;;;;2.70;0.60;;;;;;;;;;5068902;28;20028;-52
2024/03/05 07:38:18;;;;;;;1.17;0.50;;;;;;;;;;5074835;28;20043;-56
2024/03/05 07:40:47;;;;;;;1.42;0.57;;;;;;;;;;5074442;28;20032;-56
2024/03/05 07:43:13;;;;;;;0.52;0.30;;;;;;;;;;5078732;28;20094;-55
2024/03/05 07:45:39;;;;;;;0.93;0.55;;;;;;;;;;5077341;28;20039;-55
2024/03/05 07:48:05;;;;;;;2.65;0.68;;;;;;;;;;5080058;28;20028;-55
2024/03/05 07:50:31;;;;;;;2.58;0.60;;;;;;;;;;5069324;28;20066;-55
2024/03/05 07:52:59;;;;;;;3.72;0.60;;;;;;;;;;5078874;28;20552;-52
2024/03/05 07:55:25;;;;;;;2.67;0.50;;;;;;;;;;5082691;28;20036;-55
2024/03/05 07:57:52;;;;;;;1.17;0.50;;;;;;;;;;5079190;28;20059;-56
2024/03/05 08:00:20;;;;;;;3.20;0.60;;;;;;;;;;5084068;28;20101;-57
2024/03/05 08:02:49;;;;;;;1.17;0.52;;;;;;;;;;5070939;28;20033;-57
2024/03/05 08:05:17;;;;;;;0.40;0.30;;;;;;;;;;5069819;28;20033;-60
2024/03/05 08:07:43;;;;;;;0.68;0.38;;;;;;;;;;5083113;28;20040;-61
2024/03/05 08:10:09;;;;;;;0.90;0.40;;;;;;;;;;5077610;28;20133;-61
2024/03/05 08:12:35;;;;;;;2.60;0.50;;;;;;;;;;5072574;28;20487;-60
2024/03/05 08:15:04;;;;;;;2.55;0.40;;;;;;;;;;5082784;28;20119;-60
2024/03/05 08:17:31;;;;;;;0.85;0.43;;;;;;;;;;5077851;28;20071;-55
2024/03/05 08:19:56;;;;;;;1.90;0.40;;;;;;;;;;5074970;28;20033;-52
2024/03/05 08:22:22;;;;;;;3.20;0.55;;;;;;;;;;5083116;28;20036;-54
2024/03/05 08:24:47;;;;;;;0.75;0.50;;;;;;;;;;5075904;28;20037;-52
2024/03/05 08:27:13;;;;;;;2.30;0.40;;;;;;;;;;5074541;28;20040;-59
2024/03/05 08:29:39;;;;;;;0.77;0.52;;;;;;;;;;5076915;28;20122;-60
2024/03/05 08:32:06;;;;;;;0.70;0.40;;;;;;;;;;5075624;28;20024;-61
2024/03/05 08:34:32;;;;;;;1.75;0.57;;;;;;;;;;5076784;28;20036;-60
2024/03/05 08:36:57;;;;;;;0.40;0.32;;;;;;;;;;5080904;28;20499;-59
2024/03/05 08:39:22;;;;;;;0.47;0.43;;;;;;;;;;5075649;28;20032;-60
2024/03/05 08:41:48;;;;;;;2.13;0.47;;;;;;;;;;5083550;28;20065;-57
2024/03/05 08:44:14;;;;;;;0.52;0.30;;;;;;;;;;5075164;28;20062;-60
2024/03/05 08:46:40;;;;;;;1.13;0.47;;;;;;;;;;5084957;28;20040;-59
2024/03/05 08:49:06;;;;;;;1.08;0.68;;;;;;;;;;5079731;28;20059;-54
2024/03/05 08:51:35;;;;;;;0.32;0.32;;;;;;;;;;5084251;28;20418;-49
2024/03/05 08:54:01;;;;;;;1.15;0.45;;;;;;;;;;5079894;28;20506;-49
2024/03/05 08:56:26;;;;;;;0.93;0.50;;;;;;;;;;5086437;28;20075;-50
2024/03/05 08:58:53;;;;;;;0.70;0.35;;;;;;;;;;5073984;28;20063;-53
2024/03/05 09:01:18;;;;;;;4.70;0.43;;;;;;;;;;5079738;28;20028;-48
2024/03/05 09:03:43;;;;;;;0.47;0.30;;;;;;;;;;5078815;28;20090;-52
2024/03/05 09:06:09;;;;;;;3.03;0.40;;;;;;;;;;5074573;28;20470;-51
2024/03/05 09:08:34;;;;;;;2.53;0.50;;;;;;;;;;5073382;28;20411;-59
2024/03/05 09:10:59;;;;;;;1.08;0.43;;;;;;;;;;5076169;28;20111;-57
2024/03/05 09:13:25;;;;;;;1.48;0.50;;;;;;;;;;5076773;28;20076;-59
2024/03/05 09:15:52;;;;;;;1.38;0.60;;;;;;;;;;5072436;28;20040;-58
2024/03/05 09:18:19;;;;;;;1.42;0.50;;;;;;;;;;5074645;28;20065;-57
2024/03/05 09:20:46;;;;;;;0.77;0.35;;;;;;;;;;5075872;28;20475;-57
2024/03/05 09:23:11;;;;;;;1.13;0.50;;;;;;;;;;5076944;28;20038;-59
2024/03/05 09:25:38;;;;;;;0.80;0.40;;;;;;;;;;5071323;28;20041;-59
2024/03/05 09:28:04;;;;;;;3.50;0.57;;;;;;;;;;5073847;28;20066;-58
2024/03/05 09:30:31;;;;;;;4.22;0.70;;;;;;;;;;5073509;28;20407;-59
2024/03/05 09:32:58;;;;;;;3.95;0.50;;;;;;;;;;5075000;28;20036;-59
2024/03/05 09:35:24;;;;;;;1.00;0.50;;;;;;;;;;5072886;28;20032;-55
2024/03/05 09:37:49;;;;;;;1.98;0.70;;;;;;;;;;5077519;28;20122;-58
2024/03/05 09:40:18;;;;;;;2.05;0.50;;;;;;;;;;5070167;28;20888;-58
2024/03/05 09:42:43;;;;;;;1.33;0.70;;;;;;;;;;5064032;28;20044;-57
2024/03/05 09:45:11;;;;;;;1.17;0.50;;;;;;;;;;5072425;28;20040;-59
2024/03/05 09:47:37;;;;;;;2.25;0.50;;;;;;;;;;5082762;28;20085;-58
2024/03/05 09:50:04;;;;;;;1.38;0.40;;;;;;;;;;5070554;28;20044;-58
2024/03/05 09:52:30;;;;;;;1.52;0.50;;;;;;;;;;5073580;28;20047;-58
2024/03/05 09:54:55;;;;;;;0.85;0.50;;;;;;;;;;5065275;28;20040;-59
2024/03/05 09:57:21;;;;;;;1.20;0.60;;;;;;;;;;5084669;28;20040;-57
2024/03/05 09:59:47;;;;;;;0.77;0.50;;;;;;;;;;5080854;28;20166;-58
2024/03/05 10:02:15;;;;;;;2.03;0.52;;;;;;;;;;5079760;28;20116;-58
2024/03/05 10:04:41;;;;;;;0.82;0.50;;;;;;;;;;5079054;28;20488;-58
2024/03/05 10:07:07;;;;;;;2.42;0.57;;;;;;;;;;5080306;28;20043;-58
2024/03/05 10:09:34;;;;;;;3.55;0.60;;;;;;;;;;5081660;28;20055;-59
2024/03/05 10:12:01;;;;;;;1.65;0.52;;;;;;;;;;5086595;28;20067;-58
2024/03/05 10:14:27;;;;;;;1.25;0.50;;;;;;;;;;5072805;28;20419;-59
2024/03/05 10:17:00;;;;;;;1.77;0.50;;;;;;;;;;5074330;28;20040;-57
2024/03/05 10:19:25;;;;;;;1.15;0.60;;;;;;;;;;5069627;28;20047;-58
2024/03/05 10:21:51;;;;;;;1.52;0.50;;;;;;;;;;5068943;28;20032;-59
2024/03/05 10:24:27;;;;;;;2.70;0.60;;;;;;;;;;5059040;28;20115;-57
2024/03/05 10:26:54;;;;;;;1.52;0.65;;;;;;;;;;5061632;28;20036;-58
2024/03/05 10:29:19;;;;;;;1.90;0.70;;;;;;;;;;5078900;28;20040;-58
2024/03/05 10:31:46;;;;;;;1.00;0.50;;;;;;;;;;5073041;28;20531;-57
2024/03/05 10:34:15;;;;;;;0.75;0.40;;;;;;;;;;5077580;28;20031;-57
2024/03/05 10:36:45;;;;;;;1.95;0.63;;;;;;;;;;5075384;28;20044;-57
2024/03/05 10:39:12;;;;;;;1.48;0.50;;;;;;;;;;5076773;28;20036;-58
2024/03/05 10:41:39;;;;;;;0.85;0.50;;;;;;;;;;5079541;28;20562;-59
2024/03/05 10:44:08;;;;;;;2.47;0.50;;;;;;;;;;5082679;28;20121;-59
2024/03/05 10:46:35;;;;;;;2.17;0.68;;;;;;;;;;5082382;28;20036;-58
2024/03/05 10:49:03;;;;;;;1.20;0.57;;;;;;;;;;5079572;28;20039;-57
2024/03/05 10:51:40;;;;;;;0.95;0.50;;;;;;;;;;5075557;28;20058;-58
2024/03/05 10:54:06;;;;;;;1.38;0.60;;;;;;;;;;5072913;28;20044;-59
2024/03/05 10:56:33;;;;;;;1.90;0.60;;;;;;;;;;5075698;28;20063;-57
2024/03/05 10:59:46;;;;;;;1.10;0.50;;;;;;;;;;5076120;28;20055;-57
2024/03/05 11:01:47;;;;;;;1.02;0.50;;;;;;;;;;5075550;28;20036;-59
2024/03/05 11:04:20;;;;;;;0.90;0.50;;;;;;;;;;5073063;28;20059;-59
2024/03/05 11:06:47;;;;;;;0.85;0.50;;;;;;;;;;5060434;28;20055;-58
2024/03/05 11:09:19;;;;;;;2.08;0.80;;;;;;;;;;5070801;28;20115;-58
2024/03/05 11:11:47;;;;;;;1.77;0.50;;;;;;;;;;5072610;28;20068;-57
2024/03/05 11:14:13;;;;;;;0.57;0.43;;;;;;;;;;5079998;28;20471;-58
2024/03/05 11:16:39;;;;;;;1.33;0.65;;;;;;;;;;5072039;28;20206;-58
2024/03/05 11:19:07;;;;;;;1.08;0.50;;;;;;;;;;5071666;28;20040;-57
2024/03/05 11:21:38;;;;;;;1.20;0.60;;;;;;;;;;5076224;28;20043;-58
2024/03/05 11:24:04;;;;;;;2.60;0.70;;;;;;;;;;5060053;28;20414;-59
2024/03/05 11:26:31;;;;;;;1.77;0.70;;;;;;;;;;5075161;28;20043;-57
2024/03/05 11:29:17;;;;;;;1.80;0.70;;;;;;;;;;5076558;28;20043;-57
2024/03/05 11:31:46;;;;;;;1.25;0.60;;;;;;;;;;5060037;28;20044;-58
2024/03/05 11:34:12;;;;;;;1.17;0.70;;;;;;;;;;5073477;28;20032;-58
2024/03/05 11:36:38;;;;;;;1.17;0.60;;;;;;;;;;5083061;28;20057;-58
2024/03/05 11:39:20;;;;;;;1.67;0.80;;;;;;;;;;5067385;28;20093;-58
2024/03/05 11:41:46;;;;;;;1.35;0.60;;;;;;;;;;5052500;28;20028;-57
2024/03/05 11:44:14;;;;;;;2.85;0.60;;;;;;;;;;5073874;28;20115;-59
2024/03/05 11:46:43;;;;;;;0.90;0.63;;;;;;;;;;5053611;28;20036;-57
2024/03/05 11:49:09;;;;;;;0.98;0.50;;;;;;;;;;5066187;28;20047;-60
2024/03/05 11:51:35;;;;;;;1.65;0.60;;;;;;;;;;5077793;28;20044;-58
2024/03/05 11:54:00;;;;;;;1.13;0.52;;;;;;;;;;5078457;28;20032;-59
2024/03/05 11:56:25;;;;;;;1.60;0.45;;;;;;;;;;5076562;28;20028;-57
2024/03/05 11:58:54;;;;;;;2.40;0.60;;;;;;;;;;5075676;28;20040;-58
2024/03/05 12:01:23;;;;;;;1.17;0.50;;;;;;;;;;5070127;28;20112;-58
2024/03/05 12:03:58;;;;;;;1.52;0.65;;;;;;;;;;5072532;28;20668;-58
2024/03/05 12:06:24;;;;;;;4.47;0.63;;;;;;;;;;5071934;28;20118;-57
2024/03/05 12:08:50;;;;;;;1.27;0.43;;;;;;;;;;5071720;28;20461;-58
2024/03/05 12:11:15;;;;;;;2.45;0.60;;;;;;;;;;5082159;28;20070;-58
2024/03/05 12:13:41;;;;;;;1.85;0.80;;;;;;;;;;5068386;28;20681;-57
2024/03/05 12:16:08;;;;;;;1.35;0.65;;;;;;;;;;5082145;28;20036;-59
2024/03/05 12:18:34;;;;;;;1.27;0.60;;;;;;;;;;5070390;28;20115;-58
2024/03/05 12:21:00;;;;;;;2.15;0.50;;;;;;;;;;5073791;28;20119;-58
2024/03/05 12:23:25;;;;;;;2.83;0.63;;;;;;;;;;5070483;28;20476;-59
2024/03/05 12:25:51;;;;;;;2.50;0.60;;;;;;;;;;5072658;28;20089;-58
2024/03/05 12:28:16;;;;;;;1.15;0.60;;;;;;;;;;5078713;28;20040;-58
2024/03/05 12:30:42;;;;;;;1.95;0.60;;;;;;;;;;5080432;28;20384;-59
2024/03/05 12:33:07;;;;;;;3.08;0.60;;;;;;;;;;5079810;28;20041;-58
2024/03/05 12:35:32;;;;;;;5.65;1.38;;;;;;;;;;5078035;28;20064;-59
2024/03/05 12:38:02;;;;;;;0.85;0.40;;;;;;;;;;5071683;28;20117;-58
2024/03/05 12:40:30;;;;;;;1.65;0.60;;;;;;;;;;5069326;28;20119;-59
2024/03/05 12:43:08;;;;;;;1.05;0.50;;;;;;;;;;5072773;28;20052;-58
2024/03/05 12:45:34;;;;;;;1.38;0.60;;;;;;;;;;5069138;28;20086;-58
2024/03/05 12:48:00;;;;;;;0.90;0.40;;;;;;;;;;5074941;28;20124;-58
2024/03/05 12:50:26;;;;;;;2.33;0.52;;;;;;;;;;5069929;28;20115;-58
2024/03/05 12:52:59;;;;;;;0.75;0.40;;;;;;;;;;5071423;28;20044;-59
2024/03/05 12:55:24;;;;;;;1.10;0.75;;;;;;;;;;5075400;28;20044;-58
2024/03/05 12:57:50;;;;;;;2.35;0.50;;;;;;;;;;5071845;28;20422;-58
2024/03/05 13:00:15;;;;;;;0.98;0.50;;;;;;;;;;5068976;28;20408;-58
2024/03/05 13:02:41;;;;;;;0.70;0.40;;;;;;;;;;5068211;28;20434;-59
2024/03/05 13:05:08;;;;;;;3.42;0.50;;;;;;;;;;5058511;28;20028;-58
2024/03/05 13:07:36;;;;;;;0.88;0.40;;;;;;;;;;5066116;28;20052;-59
2024/03/05 13:10:07;;;;;;;0.43;0.30;;;;;;;;;;5069891;28;20051;-59
2024/03/05 13:12:32;;;;;;;1.17;0.52;;;;;;;;;;5072599;28;20123;-58
2024/03/05 13:14:57;;;;;;;1.10;0.57;;;;;;;;;;5066977;28;20111;-58
2024/03/05 13:17:22;;;;;;;1.23;0.50;;;;;;;;;;5067672;28;20115;-58
2024/03/05 13:19:48;;;;;;;1.13;0.50;;;;;;;;;;5067294;28;20189;-57
2024/03/05 13:22:13;;;;;;;2.70;0.50;;;;;;;;;;5053803;28;20044;-60
2024/03/05 13:24:39;;;;;;;0.88;0.50;;;;;;;;;;5068489;28;20036;-59
2024/03/05 13:27:04;;;;;;;4.00;0.60;;;;;;;;;;5068816;28;20111;-59
2024/03/05 13:29:30;;;;;;;1.15;0.50;;;;;;;;;;5068130;28;20028;-58
2024/03/05 13:31:55;;;;;;;0.77;0.45;;;;;;;;;;5068435;28;20895;-59
2024/03/05 13:34:22;;;;;;;3.80;0.70;;;;;;;;;;5067675;28;20040;-59
2024/03/05 13:36:47;;;;;;;0.70;0.43;;;;;;;;;;5068234;28;20063;-59
2024/03/05 13:39:18;;;;;;;1.70;0.75;;;;;;;;;;5070186;28;20506;-56
2024/03/05 13:41:44;;;;;;;3.47;0.75;;;;;;;;;;5083347;28;20032;-58
2024/03/05 13:44:10;;;;;;;1.77;0.80;;;;;;;;;;5079998;28;20041;-59
2024/03/05 13:46:37;;;;;;;1.83;0.70;;;;;;;;;;5078667;28;20102;-58
2024/03/05 13:49:04;;;;;;;1.00;0.50;;;;;;;;;;5068871;28;20028;-57
2024/03/05 13:51:30;;;;;;;7.95;0.90;;;;;;;;;;5031053;28;20797;-58
2024/03/05 13:53:58;;;;;;;3.72;0.75;;;;;;;;;;5067550;28;20036;-58
2024/03/05 13:56:23;;;;;;;2.88;0.75;;;;;;;;;;5064450;28;20479;-59
2024/03/05 13:58:48;;;;;;;3.38;0.90;;;;;;;;;;5066173;28;20052;-59
2024/03/05 14:01:14;;;;;;;2.15;0.77;;;;;;;;;;5065475;28;20064;-58
2024/03/05 14:03:39;;;;;;;2.95;0.52;;;;;;;;;;5067519;28;20109;-58
2024/03/05 14:06:05;;;;;;;5.82;1.50;;;;;;;;;;5061764;28;20040;-58
2024/03/05 14:08:31;;;;;;;3.58;0.70;;;;;;;;;;5080085;28;20040;-58
2024/03/05 14:11:01;;;;;;;3.08;0.80;;;;;;;;;;5070188;28;20046;-58
2024/03/05 14:13:27;;;;;;;3.53;1.15;;;;;;;;;;5074680;28;20043;-59
2024/03/05 14:15:52;;;;;;;2.13;0.70;;;;;;;;;;5052493;28;20430;-58
2024/03/05 14:18:21;;;;;;;1.45;0.65;;;;;;;;;;5064943;28;20048;-59
2024/03/05 14:20:47;;;;;;;4.10;1.10;;;;;;;;;;5066578;28;20041;-59
2024/03/05 14:23:12;;;;;;;1.55;0.68;;;;;;;;;;5069351;28;20089;-59
2024/03/05 14:25:38;;;;;;;3.72;0.75;;;;;;;;;;5073528;28;20025;-57
2024/03/05 14:28:05;;;;;;;2.92;0.82;;;;;;;;;;5072726;28;20117;-59
2024/03/05 14:30:31;;;;;;;1.27;0.70;;;;;;;;;;5057343;28;20037;-58
2024/03/05 14:33:00;;;;;;;2.00;0.68;;;;;;;;;;5071089;28;20040;-58
2024/03/05 14:35:26;;;;;;;2.40;0.60;;;;;;;;;;5066313;28;20929;-59
2024/03/05 14:37:52;;;;;;;1.52;0.60;;;;;;;;;;5063616;28;20109;-58
2024/03/05 14:40:18;;;;;;;1.90;0.70;;;;;;;;;;5059943;28;20050;-59
2024/03/05 14:42:44;;;;;;;2.22;0.88;;;;;;;;;;5068319;28;20040;-57